Time;durP1;ratioP1;P1;durP2;ratioP2;P2;SDS_P1;SDS_P2;PMS_P1;PMS_P2;Temp;Humidity;BMP_temperature;BMP_pressure;BME280_temperature;BME280_humidity;BME280_pressure;Samples;Min_cycle;Max_cycle;Signal;HPM_P1;HPM_P2
2022/07/04 00:00:12;;;;;;;6.30;5.70;;;;;;;;;;5035030;28;20128;-70
2022/07/04 00:02:39;;;;;;;13.93;6.03;;;;;;;;;;5052413;28;20040;-70
2022/07/04 00:05:09;;;;;;;5.50;5.10;;;;;;;;;;5052954;28;20128;-70
2022/07/04 00:07:34;;;;;;;7.07;5.72;;;;;;;;;;5052880;28;20045;-70
2022/07/04 00:10:00;;;;;;;6.55;5.88;;;;;;;;;;5052534;28;20500;-71
2022/07/04 00:12:26;;;;;;;7.57;5.80;;;;;;;;;;5052903;28;20053;-70
2022/07/04 00:14:52;;;;;;;6.45;5.68;;;;;;;;;;5034686;28;20045;-70
2022/07/04 00:17:18;;;;;;;8.85;5.68;;;;;;;;;;5052762;28;20052;-69
2022/07/04 00:19:44;;;;;;;8.40;5.90;;;;;;;;;;5052402;28;20045;-70
2022/07/04 00:22:10;;;;;;;6.25;5.55;;;;;;;;;;5034889;28;20147;-70
2022/07/04 00:24:36;;;;;;;9.40;5.55;;;;;;;;;;5052660;28;20422;-70
2022/07/04 00:27:02;;;;;;;8.73;7.18;;;;;;;;;;5018359;28;20419;-68
2022/07/04 00:29:29;;;;;;;9.38;5.90;;;;;;;;;;5034690;28;20044;-70
2022/07/04 00:31:55;;;;;;;8.40;6.50;;;;;;;;;;5033927;28;20488;-70
2022/07/04 00:34:21;;;;;;;11.73;6.18;;;;;;;;;;5032324;28;20231;-70
2022/07/04 00:36:47;;;;;;;8.20;5.22;;;;;;;;;;5051214;28;20175;-71
2022/07/04 00:39:12;;;;;;;9.23;6.72;;;;;;;;;;5052086;28;20128;-70
2022/07/04 00:41:38;;;;;;;6.68;5.85;;;;;;;;;;5052165;28;20543;-70
2022/07/04 00:44:05;;;;;;;8.35;5.97;;;;;;;;;;5034214;28;20033;-70
2022/07/04 00:46:31;;;;;;;7.07;6.25;;;;;;;;;;5052227;28;20095;-70
2022/07/04 00:48:57;;;;;;;6.65;6.00;;;;;;;;;;5051689;28;20040;-70
2022/07/04 00:51:23;;;;;;;6.95;5.53;;;;;;;;;;5052045;28;20060;-70
2022/07/04 00:53:49;;;;;;;8.75;5.93;;;;;;;;;;5051648;28;20511;-69
2022/07/04 00:56:15;;;;;;;6.13;5.47;;;;;;;;;;5051600;28;20103;-71
2022/07/04 00:58:41;;;;;;;12.93;5.50;;;;;;;;;;5050402;28;20118;-72
2022/07/04 01:01:07;;;;;;;6.55;5.93;;;;;;;;;;5050541;28;20045;-72
2022/07/04 01:03:33;;;;;;;6.30;5.57;;;;;;;;;;5050434;28;20041;-71
2022/07/04 01:05:59;;;;;;;14.00;7.32;;;;;;;;;;5050310;28;20120;-71
2022/07/04 01:08:25;;;;;;;6.53;5.80;;;;;;;;;;5050626;28;20045;-72
2022/07/04 01:10:51;;;;;;;6.20;5.57;;;;;;;;;;5050304;28;20408;-72
2022/07/04 01:13:20;;;;;;;6.00;5.40;;;;;;;;;;5032299;28;20076;-71
2022/07/04 01:15:46;;;;;;;7.20;5.25;;;;;;;;;;5032336;28;20519;-71
2022/07/04 01:18:12;;;;;;;5.68;5.18;;;;;;;;;;5032453;28;20096;-71
2022/07/04 01:20:38;;;;;;;5.90;5.22;;;;;;;;;;5032255;28;20049;-72
2022/07/04 01:23:04;;;;;;;8.75;4.85;;;;;;;;;;5049879;28;20417;-71
2022/07/04 01:25:30;;;;;;;7.95;5.07;;;;;;;;;;5049031;28;20412;-71
2022/07/04 01:27:57;;;;;;;7.97;4.90;;;;;;;;;;5051007;28;20062;-71
2022/07/04 01:30:23;;;;;;;6.30;5.05;;;;;;;;;;5052449;28;20049;-72
2022/07/04 01:32:49;;;;;;;5.20;4.70;;;;;;;;;;5032888;28;20049;-71
2022/07/04 01:35:15;;;;;;;8.25;4.53;;;;;;;;;;5050192;28;20377;-72
2022/07/04 01:37:41;;;;;;;7.22;5.00;;;;;;;;;;5050268;28;20037;-70
2022/07/04 01:40:07;;;;;;;8.75;5.40;;;;;;;;;;5049938;28;20037;-72
2022/07/04 01:42:33;;;;;;;5.97;4.75;;;;;;;;;;5050231;28;20037;-72
2022/07/04 01:44:59;;;;;;;5.20;4.70;;;;;;;;;;5048761;28;20045;-72
2022/07/04 01:47:26;;;;;;;7.38;4.88;;;;;;;;;;5048747;28;20040;-72
2022/07/04 01:49:52;;;;;;;12.57;5.28;;;;;;;;;;5049615;28;20419;-73
2022/07/04 01:52:17;;;;;;;5.85;5.35;;;;;;;;;;5049922;28;20061;-72
2022/07/04 01:54:44;;;;;;;12.07;7.28;;;;;;;;;;5048413;28;20063;-73
2022/07/04 01:57:10;;;;;;;7.95;5.90;;;;;;;;;;5049845;28;20040;-71
2022/07/04 02:02:21;;;;;;;6.30;5.05;;;;;;;;;;5031782;28;20403;-71
2022/07/04 02:04:47;;;;;;;8.02;5.80;;;;;;;;;;5049414;28;20048;-71
2022/07/04 02:07:13;;;;;;;5.78;5.30;;;;;;;;;;5049765;28;20124;-74
2022/07/04 02:09:39;;;;;;;7.63;5.00;;;;;;;;;;5031575;28;20392;-71
2022/07/04 02:14:49;;;;;;;12.48;8.63;;;;;;;;;;5049138;28;20127;-71
2022/07/04 02:17:15;;;;;;;8.02;6.03;;;;;;;;;;5049246;28;20045;-71
2022/07/04 02:19:41;;;;;;;12.10;6.90;;;;;;;;;;5049343;28;20049;-72
2022/07/04 02:22:07;;;;;;;5.80;5.30;;;;;;;;;;5031105;28;20041;-72
2022/07/04 02:24:33;;;;;;;6.63;5.78;;;;;;;;;;5049152;28;20139;-72
2022/07/04 02:26:59;;;;;;;8.40;5.18;;;;;;;;;;5048890;28;20422;-71
2022/07/04 02:29:25;;;;;;;6.60;5.50;;;;;;;;;;5049029;28;20048;-72
2022/07/04 02:31:51;;;;;;;9.00;5.78;;;;;;;;;;5049060;28;20040;-71
2022/07/04 02:34:17;;;;;;;5.70;5.18;;;;;;;;;;5048882;28;20048;-71
2022/07/04 02:36:43;;;;;;;16.83;11.15;;;;;;;;;;5031167;28;20037;-71
2022/07/04 02:39:09;;;;;;;10.90;6.07;;;;;;;;;;5048734;28;20515;-73
2022/07/04 02:41:35;;;;;;;10.32;6.05;;;;;;;;;;5049120;28;20530;-72
2022/07/04 02:44:01;;;;;;;7.15;6.53;;;;;;;;;;5047482;28;20048;-71
2022/07/04 02:46:27;;;;;;;11.82;6.63;;;;;;;;;;5049147;28;20044;-71
2022/07/04 02:48:53;;;;;;;9.80;6.85;;;;;;;;;;5048674;28;20049;-72
2022/07/04 02:51:19;;;;;;;8.25;6.72;;;;;;;;;;5048749;28;20479;-71
2022/07/04 02:53:45;;;;;;;11.27;6.82;;;;;;;;;;5048730;28;20466;-72
2022/07/04 02:56:11;;;;;;;7.00;6.40;;;;;;;;;;5048323;28;20053;-72
2022/07/04 02:58:37;;;;;;;6.80;6.20;;;;;;;;;;5048573;28;20187;-71
2022/07/04 03:01:03;;;;;;;7.43;6.43;;;;;;;;;;5048450;28;20320;-71
2022/07/04 03:03:28;;;;;;;10.13;6.78;;;;;;;;;;5030604;28;20123;-72
2022/07/04 03:05:54;;;;;;;8.98;6.30;;;;;;;;;;5048402;28;20048;-71
2022/07/04 03:08:20;;;;;;;9.02;7.82;;;;;;;;;;5048527;28;20296;-72
2022/07/04 03:10:47;;;;;;;7.88;7.15;;;;;;;;;;5048448;28;20053;-72
2022/07/04 03:13:13;;;;;;;13.50;7.30;;;;;;;;;;5048303;28;20044;-72
2022/07/04 03:15:39;;;;;;;14.95;8.00;;;;;;;;;;5048507;28;20041;-71
2022/07/04 03:18:05;;;;;;;8.30;7.07;;;;;;;;;;5048194;28;20052;-72
2022/07/04 03:20:31;;;;;;;10.70;6.60;;;;;;;;;;5048253;28;20033;-72
2022/07/04 03:22:57;;;;;;;14.20;7.13;;;;;;;;;;5048336;28;20048;-71
2022/07/04 03:25:23;;;;;;;7.40;6.38;;;;;;;;;;5048342;28;20067;-72
2022/07/04 03:27:52;;;;;;;9.07;6.15;;;;;;;;;;5048108;28;20052;-71
2022/07/04 03:30:18;;;;;;;8.45;6.85;;;;;;;;;;5048091;28;20052;-71
2022/07/04 03:32:44;;;;;;;14.38;6.28;;;;;;;;;;5048375;28;20076;-71
2022/07/04 03:35:09;;;;;;;8.07;6.88;;;;;;;;;;5030224;28;20092;-71
2022/07/04 03:37:35;;;;;;;11.82;7.10;;;;;;;;;;5048398;28;20053;-72
2022/07/04 03:40:01;;;;;;;12.20;7.43;;;;;;;;;;5029940;28;20416;-72
2022/07/04 03:42:28;;;;;;;7.70;6.57;;;;;;;;;;5030993;28;20538;-72
2022/07/04 03:44:55;;;;;;;15.20;6.97;;;;;;;;;;5048080;28;20039;-73
2022/07/04 03:47:21;;;;;;;10.48;6.93;;;;;;;;;;5048268;28;20132;-73
2022/07/04 03:49:46;;;;;;;7.85;7.07;;;;;;;;;;5048337;28;20071;-70
2022/07/04 03:52:12;;;;;;;10.25;7.30;;;;;;;;;;5047828;28;20486;-72
2022/07/04 03:54:38;;;;;;;10.88;7.15;;;;;;;;;;5048148;28;20033;-71
2022/07/04 03:57:05;;;;;;;12.63;6.65;;;;;;;;;;5047740;28;20049;-72
2022/07/04 03:59:30;;;;;;;10.75;7.60;;;;;;;;;;5048283;28;20076;-71
2022/07/04 04:01:57;;;;;;;11.98;6.90;;;;;;;;;;5047857;28;20053;-72
2022/07/04 04:07:07;;;;;;;19.08;7.20;;;;;;;;;;5048214;28;20554;-71
2022/07/04 04:09:33;;;;;;;8.68;7.10;;;;;;;;;;5051666;28;20045;-71
2022/07/04 04:11:59;;;;;;;9.95;6.60;;;;;;;;;;5033544;28;20056;-72
2022/07/04 04:14:26;;;;;;;11.00;6.40;;;;;;;;;;5051894;28;20127;-72
2022/07/04 04:16:51;;;;;;;6.80;6.30;;;;;;;;;;5051569;28;20041;-72
2022/07/04 04:19:17;;;;;;;9.80;6.50;;;;;;;;;;5051503;28;20044;-71
2022/07/04 04:21:44;;;;;;;6.57;6.00;;;;;;;;;;5051509;28;20060;-72
2022/07/04 04:24:10;;;;;;;11.88;6.28;;;;;;;;;;5033661;28;20045;-72
2022/07/04 04:26:36;;;;;;;8.45;6.38;;;;;;;;;;5052225;28;20522;-72
2022/07/04 04:29:01;;;;;;;8.55;5.97;;;;;;;;;;5054060;28;20052;-72
2022/07/04 04:31:27;;;;;;;17.30;7.05;;;;;;;;;;5055093;28;20463;-73
2022/07/04 04:33:53;;;;;;;7.85;6.85;;;;;;;;;;5034168;28;20048;-72
2022/07/04 04:36:19;;;;;;;8.13;6.72;;;;;;;;;;5051087;28;20427;-71
2022/07/04 04:38:45;;;;;;;12.57;7.07;;;;;;;;;;5033212;28;20055;-72
2022/07/04 04:41:11;;;;;;;7.43;6.35;;;;;;;;;;5050894;28;20120;-71
2022/07/04 04:43:37;;;;;;;11.18;6.65;;;;;;;;;;5051112;28;20037;-72
2022/07/04 04:46:03;;;;;;;15.88;7.13;;;;;;;;;;5050694;28;20068;-72
2022/07/04 04:48:30;;;;;;;8.00;6.28;;;;;;;;;;5050875;28;20100;-72
2022/07/04 04:50:56;;;;;;;8.30;5.95;;;;;;;;;;5050678;28;20124;-73
2022/07/04 04:53:25;;;;;;;6.88;6.15;;;;;;;;;;5049707;28;20044;-71
2022/07/04 04:55:51;;;;;;;9.75;6.40;;;;;;;;;;5050926;28;20582;-71
2022/07/04 04:58:18;;;;;;;6.43;5.82;;;;;;;;;;5050621;28;20044;-73
2022/07/04 05:00:43;;;;;;;7.20;5.57;;;;;;;;;;5050822;28;20041;-73
2022/07/04 05:03:10;;;;;;;11.73;5.72;;;;;;;;;;5032498;28;20472;-73
2022/07/04 05:05:35;;;;;;;5.97;5.47;;;;;;;;;;5050615;28;20492;-73
2022/07/04 05:08:01;;;;;;;15.43;6.75;;;;;;;;;;5050553;28;20120;-72
2022/07/04 05:10:27;;;;;;;7.53;6.22;;;;;;;;;;5050558;28;20053;-72
2022/07/04 05:12:53;;;;;;;11.00;6.53;;;;;;;;;;5050649;28;20040;-73
2022/07/04 05:15:19;;;;;;;9.90;6.05;;;;;;;;;;5050117;28;20530;-73
2022/07/04 05:17:45;;;;;;;7.68;5.25;;;;;;;;;;5032729;28;20044;-72
2022/07/04 05:20:11;;;;;;;11.35;5.72;;;;;;;;;;5048669;28;20747;-73
2022/07/04 05:22:37;;;;;;;12.70;5.97;;;;;;;;;;5050577;28;20128;-72
2022/07/04 05:25:03;;;;;;;10.65;6.45;;;;;;;;;;5050158;28;20188;-70
2022/07/04 05:27:30;;;;;;;9.10;5.45;;;;;;;;;;5050445;28;20527;-72
2022/07/04 05:29:57;;;;;;;10.85;6.10;;;;;;;;;;5049956;28;20504;-72
2022/07/04 05:32:23;;;;;;;9.75;5.80;;;;;;;;;;5050160;28;20048;-72
2022/07/04 05:34:49;;;;;;;16.52;5.53;;;;;;;;;;5050093;28;20079;-71
2022/07/04 05:37:15;;;;;;;7.05;5.13;;;;;;;;;;5049930;28;20199;-73
2022/07/04 05:39:41;;;;;;;9.15;5.60;;;;;;;;;;5049858;28;20165;-72
2022/07/04 05:42:07;;;;;;;10.13;5.80;;;;;;;;;;5049893;28;20076;-73
2022/07/04 05:44:33;;;;;;;9.15;5.35;;;;;;;;;;5050052;28;20044;-72
2022/07/04 05:46:59;;;;;;;8.18;5.53;;;;;;;;;;5050031;28;20529;-73
2022/07/04 05:49:25;;;;;;;6.97;5.68;;;;;;;;;;5050054;28;20056;-74
2022/07/04 05:51:51;;;;;;;7.47;6.07;;;;;;;;;;5049878;28;20049;-73
2022/07/04 05:54:17;;;;;;;6.30;5.35;;;;;;;;;;5049729;28;20047;-72
2022/07/04 05:56:43;;;;;;;5.80;5.25;;;;;;;;;;5049938;28;20393;-72
2022/07/04 05:59:09;;;;;;;5.22;4.75;;;;;;;;;;5049553;28;20055;-71
2022/07/04 06:01:39;;;;;;;5.45;4.75;;;;;;;;;;5032227;28;20045;-72
2022/07/04 06:04:05;;;;;;;6.80;4.95;;;;;;;;;;5048323;28;20427;-71
2022/07/04 06:06:31;;;;;;;9.95;5.00;;;;;;;;;;5049861;28;20091;-73
2022/07/04 06:08:57;;;;;;;8.20;4.00;;;;;;;;;;5049565;28;20414;-73
2022/07/04 06:11:23;;;;;;;4.95;4.55;;;;;;;;;;5049557;28;20044;-72
2022/07/04 06:13:49;;;;;;;10.45;5.10;;;;;;;;;;5049490;28;20092;-72
2022/07/04 06:16:15;;;;;;;4.97;4.47;;;;;;;;;;5031402;28;20045;-72
2022/07/04 06:18:41;;;;;;;6.15;4.28;;;;;;;;;;5049275;28;20499;-73
2022/07/04 06:21:07;;;;;;;8.30;4.30;;;;;;;;;;5048942;28;20053;-73
2022/07/04 06:23:33;;;;;;;12.23;4.82;;;;;;;;;;5031466;28;20040;-73
2022/07/04 06:25:59;;;;;;;4.95;4.45;;;;;;;;;;5048838;28;20049;-72
2022/07/04 06:28:25;;;;;;;6.25;4.43;;;;;;;;;;5031313;28;20044;-71
2022/07/04 06:30:51;;;;;;;5.60;4.90;;;;;;;;;;5048566;28;20099;-70
2022/07/04 06:33:18;;;;;;;10.20;4.82;;;;;;;;;;5048677;28;20083;-72
2022/07/04 06:35:57;;;;;;;7.40;4.43;;;;;;;;;;5030987;28;20110;-72
2022/07/04 06:38:27;;;;;;;5.45;3.75;;;;;;;;;;5048898;28;20067;-74
2022/07/04 06:40:53;;;;;;;4.57;4.20;;;;;;;;;;5049109;28;20190;-72
2022/07/04 06:43:19;;;;;;;5.15;4.70;;;;;;;;;;5048799;28;20049;-74
2022/07/04 06:45:46;;;;;;;5.70;5.00;;;;;;;;;;5049031;28;20059;-72
2022/07/04 06:48:12;;;;;;;4.78;4.40;;;;;;;;;;5048910;28;20643;-72
2022/07/04 06:50:38;;;;;;;4.90;4.53;;;;;;;;;;5048831;28;20139;-72
2022/07/04 06:53:04;;;;;;;4.30;4.00;;;;;;;;;;5048842;28;20114;-74
2022/07/04 06:55:31;;;;;;;4.43;4.03;;;;;;;;;;5048876;28;20037;-72
2022/07/04 06:57:57;;;;;;;7.30;4.57;;;;;;;;;;5030835;28;20052;-72
2022/07/04 07:00:23;;;;;;;4.72;4.35;;;;;;;;;;5048237;28;20625;-72
2022/07/04 07:02:49;;;;;;;4.97;4.35;;;;;;;;;;5048547;28;20372;-72
2022/07/04 07:05:15;;;;;;;5.63;4.47;;;;;;;;;;5030202;28;20032;-74
2022/07/04 07:07:41;;;;;;;6.35;4.40;;;;;;;;;;5048800;28;20132;-72
2022/07/04 07:10:07;;;;;;;4.63;4.22;;;;;;;;;;5048348;28;20175;-72
2022/07/04 07:12:33;;;;;;;4.63;4.22;;;;;;;;;;5048507;28;20139;-71
2022/07/04 07:14:59;;;;;;;4.90;4.50;;;;;;;;;;5048580;28;20116;-72
2022/07/04 07:17:25;;;;;;;4.50;4.18;;;;;;;;;;5046901;28;20048;-72
2022/07/04 07:19:51;;;;;;;6.63;4.30;;;;;;;;;;5030518;28;20126;-72
2022/07/04 07:22:17;;;;;;;7.82;4.80;;;;;;;;;;5030363;28;20523;-73
2022/07/04 07:24:43;;;;;;;5.90;5.28;;;;;;;;;;5048640;28;20033;-73
2022/07/04 07:27:09;;;;;;;6.82;5.07;;;;;;;;;;5049683;28;20041;-74
2022/07/04 07:29:35;;;;;;;7.32;5.20;;;;;;;;;;5050471;28;20037;-72
2022/07/04 07:32:01;;;;;;;5.93;5.43;;;;;;;;;;5048971;28;20088;-72
2022/07/04 07:34:27;;;;;;;6.18;5.10;;;;;;;;;;5048018;28;20123;-72
2022/07/04 07:36:53;;;;;;;6.05;5.35;;;;;;;;;;5048473;28;20041;-72
2022/07/04 07:39:19;;;;;;;5.53;5.03;;;;;;;;;;5048331;28;20478;-73
2022/07/04 07:41:45;;;;;;;5.55;5.15;;;;;;;;;;5030406;28;20416;-72
2022/07/04 07:44:11;;;;;;;5.97;4.80;;;;;;;;;;5051632;28;20049;-71
2022/07/04 07:46:37;;;;;;;5.30;4.82;;;;;;;;;;5052431;28;20131;-73
2022/07/04 07:49:03;;;;;;;5.25;4.85;;;;;;;;;;5052198;28;20594;-73
2022/07/04 07:51:29;;;;;;;9.00;5.07;;;;;;;;;;5052156;28;20088;-72
2022/07/04 07:53:55;;;;;;;5.43;4.82;;;;;;;;;;5052229;28;20116;-70
2022/07/04 07:56:22;;;;;;;12.48;5.30;;;;;;;;;;5051577;28;20045;-71
2022/07/04 07:58:49;;;;;;;5.25;4.90;;;;;;;;;;5052124;28;20104;-72
2022/07/04 08:01:15;;;;;;;5.72;5.20;;;;;;;;;;5051673;28;20052;-71
2022/07/04 08:06:26;;;;;;;5.53;4.65;;;;;;;;;;5051589;28;20045;-72
2022/07/04 08:08:52;;;;;;;7.60;5.00;;;;;;;;;;5051975;28;20056;-73
2022/07/04 08:11:18;;;;;;;9.32;5.10;;;;;;;;;;5050267;28;20053;-72
2022/07/04 08:13:44;;;;;;;5.10;4.65;;;;;;;;;;5051814;28;20043;-73
2022/07/04 08:16:10;;;;;;;8.85;4.78;;;;;;;;;;5051455;28;20066;-71
2022/07/04 08:18:36;;;;;;;5.38;4.82;;;;;;;;;;5051808;28;20143;-71
2022/07/04 08:21:02;;;;;;;7.95;5.18;;;;;;;;;;5033522;28;20053;-72
2022/07/04 08:23:28;;;;;;;9.52;4.63;;;;;;;;;;5051494;28;20048;-73
2022/07/04 08:25:54;;;;;;;5.70;4.68;;;;;;;;;;5051801;28;20045;-74
2022/07/04 08:28:20;;;;;;;5.00;4.68;;;;;;;;;;5051701;28;20069;-73
2022/07/04 08:30:46;;;;;;;7.75;5.05;;;;;;;;;;5051509;28;20524;-72
2022/07/04 08:33:12;;;;;;;6.05;4.60;;;;;;;;;;5051551;28;20439;-73
2022/07/04 08:35:38;;;;;;;5.65;5.13;;;;;;;;;;5051456;28;20044;-73
2022/07/04 08:38:03;;;;;;;7.43;5.35;;;;;;;;;;5017107;28;20048;-71
2022/07/04 08:40:29;;;;;;;7.57;5.13;;;;;;;;;;5051086;28;20041;-73
2022/07/04 08:42:56;;;;;;;9.77;5.20;;;;;;;;;;5051486;28;20041;-73
2022/07/04 08:45:25;;;;;;;5.43;4.97;;;;;;;;;;5050982;28;20053;-72
2022/07/04 08:47:52;;;;;;;5.88;5.47;;;;;;;;;;5050163;28;20045;-72
2022/07/04 08:50:34;;;;;;;5.15;4.85;;;;;;;;;;5050126;28;20045;-73
2022/07/04 08:53:06;;;;;;;5.80;5.30;;;;;;;;;;5049666;28;20045;-72
2022/07/04 08:58:26;;;;;;;12.52;5.20;;;;;;;;;;5032893;28;20111;-71
2022/07/04 09:00:52;;;;;;;5.43;4.90;;;;;;;;;;5050954;28;20040;-72
2022/07/04 09:03:19;;;;;;;5.60;5.00;;;;;;;;;;5032610;28;20037;-73
2022/07/04 09:05:45;;;;;;;5.85;5.45;;;;;;;;;;5049630;28;20049;-71
2022/07/04 09:08:11;;;;;;;5.75;5.20;;;;;;;;;;5050622;28;20045;-73
2022/07/04 09:10:37;;;;;;;5.97;5.07;;;;;;;;;;5050628;28;20411;-72
2022/07/04 09:13:03;;;;;;;5.47;5.07;;;;;;;;;;5050708;28;20129;-72
2022/07/04 09:15:29;;;;;;;5.47;4.80;;;;;;;;;;5050397;28;20049;-73
2022/07/04 09:17:56;;;;;;;6.00;4.97;;;;;;;;;;5050679;28;20055;-72
2022/07/04 09:20:22;;;;;;;8.55;5.43;;;;;;;;;;5050115;28;20048;-72
2022/07/04 09:22:48;;;;;;;7.57;4.93;;;;;;;;;;5050701;28;20052;-72
2022/07/04 09:25:14;;;;;;;5.65;4.97;;;;;;;;;;5050093;28;20098;-73
2022/07/04 09:27:45;;;;;;;5.90;5.30;;;;;;;;;;5050736;28;20087;-72
2022/07/04 09:30:11;;;;;;;8.95;5.70;;;;;;;;;;5049984;28;20068;-72
2022/07/04 09:32:44;;;;;;;5.82;5.43;;;;;;;;;;5050479;28;20063;-73
2022/07/04 09:35:12;;;;;;;7.80;5.47;;;;;;;;;;5050128;28;20142;-72
2022/07/04 09:37:47;;;;;;;5.90;5.28;;;;;;;;;;5032350;28;20163;-72
2022/07/04 09:40:23;;;;;;;6.05;4.65;;;;;;;;;;5049785;28;20071;-73
2022/07/04 09:42:49;;;;;;;5.82;5.43;;;;;;;;;;5050255;28;20040;-71
2022/07/04 09:45:14;;;;;;;8.52;6.00;;;;;;;;;;5049801;28;20037;-72
2022/07/04 09:47:41;;;;;;;6.57;6.00;;;;;;;;;;5050216;28;20068;-72
2022/07/04 09:50:13;;;;;;;7.03;5.57;;;;;;;;;;5049918;28;20083;-73
2022/07/04 09:52:46;;;;;;;8.38;5.95;;;;;;;;;;5032199;28;20522;-73
2022/07/04 09:55:12;;;;;;;5.68;5.28;;;;;;;;;;5049720;28;20045;-73
2022/07/04 09:57:43;;;;;;;7.13;5.47;;;;;;;;;;5048646;28;20048;-73
2022/07/04 10:00:16;;;;;;;5.57;4.90;;;;;;;;;;5049779;28;20127;-73
2022/07/04 10:02:41;;;;;;;5.70;5.30;;;;;;;;;;5049814;28;20085;-72
2022/07/04 10:05:07;;;;;;;5.85;5.45;;;;;;;;;;5031161;28;20076;-73
2022/07/04 10:07:48;;;;;;;6.13;5.55;;;;;;;;;;5049645;28;20123;-72
2022/07/04 10:10:24;;;;;;;6.20;5.32;;;;;;;;;;5049213;28;20424;-73
2022/07/04 10:12:50;;;;;;;12.90;5.72;;;;;;;;;;5049608;28;20044;-72
2022/07/04 10:15:17;;;;;;;5.72;5.13;;;;;;;;;;5049306;28;20049;-71
2022/07/04 10:17:42;;;;;;;5.68;5.30;;;;;;;;;;5048794;28;20411;-73
2022/07/04 23:45:35;;;;;;;36.25;17.20;;;;;;;;;;5067082;28;20083;-70
2022/07/04 23:48:01;;;;;;;30.13;17.55;;;;;;;;;;5069012;28;20044;-69
2022/07/04 23:50:27;;;;;;;17.77;15.10;;;;;;;;;;5051702;28;20128;-70
2022/07/04 23:52:54;;;;;;;27.42;15.43;;;;;;;;;;5069199;28;20070;-71
2022/07/04 23:55:20;;;;;;;25.80;14.75;;;;;;;;;;5068905;28;20051;-69
2022/07/04 23:57:46;;;;;;;23.67;14.65;;;;;;;;;;5069158;28;20123;-69
